createdAt,value
2022-12-04T00:01:04.049Z,101405.00
2022-12-04T00:03:31.114Z,101409.47
2022-12-04T00:06:01.003Z,101401.88
2022-12-04T00:08:27.841Z,101399.88
2022-12-04T00:10:55.020Z,101397.06
2022-12-04T00:13:21.845Z,101397.91
2022-12-04T00:15:48.856Z,101395.09
2022-12-04T00:18:15.669Z,101394.25
2022-12-04T00:20:42.536Z,101401.34
2022-12-04T00:23:09.378Z,101396.88
2022-12-04T00:25:40.946Z,101400.31
2022-12-04T00:28:08.280Z,101396.13
2022-12-04T00:30:35.118Z,101396.19
2022-12-04T00:33:02.066Z,101394.03
2022-12-04T00:35:28.958Z,101387.63
2022-12-04T00:37:55.787Z,101387.97
2022-12-04T00:40:22.613Z,101386.06
2022-12-04T00:42:49.415Z,101387.81
2022-12-04T00:45:16.420Z,101376.31
2022-12-04T00:47:43.287Z,101368.78
2022-12-04T00:50:10.564Z,101371.94
2022-12-04T00:52:37.440Z,101363.78
2022-12-04T00:55:04.592Z,101358.78
2022-12-04T00:57:31.491Z,101365.22
2022-12-04T00:59:58.373Z,101368.66
2022-12-04T01:02:25.198Z,101369.78
2022-12-04T01:04:51.988Z,101368.44
2022-12-04T01:07:18.939Z,101362.28
2022-12-04T01:09:45.754Z,101374.97
2022-12-04T01:12:16.266Z,101366.25
2022-12-04T01:14:47.332Z,101362.69
2022-12-04T01:17:14.451Z,101364.94
2022-12-04T01:19:41.874Z,101368.31
2022-12-04T01:22:08.733Z,101365.28
2022-12-04T01:24:35.572Z,101362.75
2022-12-04T01:27:02.525Z,101360.03
2022-12-04T01:29:29.352Z,101362.28
2022-12-04T01:31:56.380Z,101361.78
2022-12-04T01:34:25.573Z,101360.09
2022-12-04T01:36:52.576Z,101357.59
2022-12-04T01:39:19.496Z,101357.34
2022-12-04T01:41:46.458Z,101350.69
2022-12-04T01:44:13.776Z,101345.06
2022-12-04T01:46:41.357Z,101351.59
2022-12-04T01:49:10.918Z,101349.69
2022-12-04T01:51:39.944Z,101342.41
2022-12-04T01:54:09.520Z,101350.00
2022-12-04T01:56:39.303Z,101349.78
2022-12-04T01:59:07.545Z,101354.31
2022-12-04T02:01:38.696Z,101349.84
2022-12-04T02:04:06.095Z,101347.09
2022-12-04T02:06:32.911Z,101341.47
2022-12-04T02:08:59.901Z,101344.66
2022-12-04T02:11:33.341Z,101344.66
2022-12-04T02:14:03.340Z,101339.94
2022-12-04T02:16:36.860Z,101338.56
2022-12-04T02:19:06.902Z,101340.28
2022-12-04T02:21:37.642Z,101341.13
2022-12-04T02:24:05.820Z,101337.81
2022-12-04T02:26:32.909Z,101333.94
2022-12-04T02:29:00.014Z,101336.75
2022-12-04T02:31:31.831Z,101331.72
2022-12-04T02:34:01.115Z,101329.53
2022-12-04T02:36:29.780Z,101334.59
2022-12-04T02:38:59.722Z,101331.25
2022-12-04T02:41:29.920Z,101331.84
2022-12-04T02:43:58.938Z,101334.97
2022-12-04T02:46:28.963Z,101328.81
2022-12-04T02:48:58.297Z,101330.25
2022-12-04T02:51:27.626Z,101322.13
2022-12-04T02:53:57.499Z,101324.69
2022-12-04T02:56:27.394Z,101325.84
2022-12-04T02:58:57.332Z,101328.13
2022-12-04T03:01:28.476Z,101316.34
2022-12-04T03:03:59.451Z,101320.59
2022-12-04T03:06:28.626Z,101319.22
2022-12-04T03:08:59.837Z,101320.88
2022-12-04T03:11:29.490Z,101317.84
2022-12-04T03:14:00.317Z,101314.50
2022-12-04T03:16:30.170Z,101312.00
2022-12-04T03:19:00.045Z,101315.94
2022-12-04T03:21:31.380Z,101312.59
2022-12-04T03:24:02.593Z,101306.75
2022-12-04T03:26:35.626Z,101313.81
2022-12-04T03:29:10.165Z,101309.84
2022-12-04T03:31:39.978Z,101308.78
2022-12-04T03:34:08.033Z,101314.38
2022-12-04T03:36:37.878Z,101309.59
2022-12-04T03:39:07.726Z,101303.75
2022-12-04T03:41:45.156Z,101297.31
2022-12-04T03:44:18.113Z,101315.28
2022-12-04T03:46:48.024Z,101297.91
2022-12-04T03:49:20.038Z,101304.09
2022-12-04T03:51:51.221Z,101311.13
2022-12-04T03:54:21.518Z,101306.94
2022-12-04T03:56:53.454Z,101310.91
2022-12-04T03:59:23.484Z,101311.47
2022-12-04T04:01:51.604Z,101315.44
2022-12-04T04:04:22.061Z,101309.28
2022-12-04T04:06:51.897Z,101317.97
2022-12-04T04:09:21.887Z,101309.03
2022-12-04T04:11:53.298Z,101314.94
2022-12-04T04:14:26.249Z,101314.41
2022-12-04T04:17:00.816Z,101317.78
2022-12-04T04:19:33.381Z,101308.53
2022-12-04T04:22:04.940Z,101310.22
2022-12-04T04:24:36.544Z,101310.25
2022-12-04T04:27:03.732Z,101313.38
2022-12-04T04:29:30.594Z,101308.06
2022-12-04T04:32:00.471Z,101311.16
2022-12-04T04:34:30.410Z,101308.66
2022-12-04T04:37:00.915Z,101308.09
2022-12-04T04:39:29.106Z,101306.97
2022-12-04T04:41:59.247Z,101308.41
2022-12-04T04:44:28.813Z,101298.63
2022-12-04T04:46:58.632Z,101306.19
2022-12-04T04:49:28.570Z,101305.94
2022-12-04T04:51:55.617Z,101302.31
2022-12-04T04:54:23.097Z,101299.78
2022-12-04T04:56:49.966Z,101304.88
2022-12-04T04:59:16.805Z,101302.63
2022-12-04T05:01:44.877Z,101311.88
2022-12-04T05:04:11.795Z,101305.44
2022-12-04T05:06:38.607Z,101306.03
2022-12-04T05:09:05.814Z,101310.81
2022-12-04T05:11:32.706Z,101305.50
2022-12-04T05:13:59.495Z,101314.22
2022-12-04T05:16:26.374Z,101316.19
2022-12-04T05:18:56.456Z,101317.31
2022-12-04T05:21:23.350Z,101311.16
2022-12-04T05:23:51.419Z,101319.88
2022-12-04T05:26:18.211Z,101315.38
2022-12-04T05:28:45.111Z,101312.84
2022-12-04T05:31:12.016Z,101310.38
2022-12-04T05:33:38.898Z,101307.00
2022-12-04T05:36:07.095Z,101313.47
2022-12-04T05:38:34.352Z,101311.25
2022-12-04T05:41:02.297Z,101308.72
2022-12-04T05:43:29.326Z,101310.41
2022-12-04T05:45:56.152Z,101315.19
2022-12-04T05:48:22.932Z,101323.88
2022-12-04T05:50:49.688Z,101312.41
2022-12-04T05:53:16.528Z,101311.34
2022-12-04T05:55:43.318Z,101311.06
2022-12-04T05:58:10.149Z,101310.50
2022-12-04T06:00:37.357Z,101317.50
2022-12-04T06:03:04.361Z,101317.78
2022-12-04T06:05:32.669Z,101313.56
2022-12-04T06:07:59.564Z,101319.78
2022-12-04T06:10:26.502Z,101320.63
2022-12-04T06:12:57.890Z,101322.84
2022-12-04T06:15:24.744Z,101324.00
2022-12-04T06:17:51.831Z,101317.81
2022-12-04T06:20:19.377Z,101316.44
2022-12-04T06:22:46.334Z,101325.38
2022-12-04T06:25:13.149Z,101328.78
2022-12-04T06:27:40.124Z,101332.41
2022-12-04T06:30:07.449Z,101329.06
2022-12-04T06:32:34.267Z,101324.28
2022-12-04T06:35:02.069Z,101323.78
2022-12-04T06:37:28.883Z,101324.88
2022-12-04T06:39:55.948Z,101327.13
2022-12-04T06:42:23.127Z,101321.00
2022-12-04T06:44:49.950Z,101317.34
2022-12-04T06:47:16.810Z,101323.25
2022-12-04T06:49:43.654Z,101323.81
2022-12-04T06:52:10.520Z,101325.16
2022-12-04T06:54:37.311Z,101314.22
2022-12-04T06:57:04.291Z,101318.09
2022-12-04T06:59:31.236Z,101320.88
2022-12-04T07:01:58.082Z,101321.91
2022-12-04T07:04:25.033Z,101321.88
2022-12-04T07:06:52.451Z,101313.69
2022-12-04T07:09:20.769Z,101319.59
2022-12-04T07:11:48.456Z,101326.78
2022-12-04T07:14:15.501Z,101320.63
2022-12-04T07:16:42.893Z,101322.81
2022-12-04T07:19:11.137Z,101331.47
2022-12-04T07:21:40.457Z,101324.97
2022-12-04T07:24:07.372Z,101334.47
2022-12-04T07:26:34.270Z,101334.72
2022-12-04T07:29:01.432Z,101336.63
2022-12-04T07:31:29.154Z,101336.59
2022-12-04T07:33:56.516Z,101339.34
2022-12-04T07:36:23.792Z,101342.94
2022-12-04T07:38:50.648Z,101337.56
2022-12-04T07:41:18.586Z,101347.63
2022-12-04T07:43:45.488Z,101346.19
2022-12-04T07:46:13.951Z,101346.16
2022-12-04T07:48:41.239Z,101348.06
2022-12-04T07:51:09.916Z,101353.63
2022-12-04T07:53:37.409Z,101353.56
2022-12-04T07:56:04.757Z,101352.97
2022-12-04T07:58:31.777Z,101353.75
2022-12-04T08:01:01.725Z,101359.28
2022-12-04T08:03:28.608Z,101360.38
2022-12-04T08:05:55.442Z,101363.13
2022-12-04T08:08:22.258Z,101363.06
2022-12-04T08:10:49.360Z,101364.13
2022-12-04T08:13:16.206Z,101366.03
2022-12-04T08:15:42.974Z,101359.22
2022-12-04T08:18:09.750Z,101358.59
2022-12-04T08:20:36.535Z,101365.00
2022-12-04T08:23:03.419Z,101366.34
2022-12-04T08:25:30.309Z,101368.56
2022-12-04T08:27:57.117Z,101371.63
2022-12-04T08:30:23.897Z,101370.19
2022-12-04T08:32:50.831Z,101378.00
2022-12-04T08:35:17.643Z,101377.44
2022-12-04T08:37:44.529Z,101384.41
2022-12-04T08:40:12.157Z,101396.72
2022-12-04T08:42:39.041Z,101387.16
2022-12-04T08:45:06.308Z,101391.03
2022-12-04T08:47:33.267Z,101385.09
2022-12-04T08:50:00.154Z,101391.25
2022-12-04T08:52:26.940Z,101396.28
2022-12-04T08:54:53.729Z,101397.13
2022-12-04T08:57:20.465Z,101398.47
2022-12-04T08:59:47.239Z,101400.16
2022-12-04T09:02:14.000Z,101405.47
2022-12-04T09:04:45.757Z,101400.66
2022-12-04T09:07:12.714Z,101406.28
2022-12-04T09:09:42.345Z,101405.16
2022-12-04T09:12:13.485Z,101406.84
2022-12-04T09:14:40.250Z,101414.13
2022-12-04T09:17:07.268Z,101417.78
2022-12-04T09:19:35.647Z,101413.28
2022-12-04T09:22:02.324Z,101409.09
2022-12-04T09:24:30.279Z,101406.91
2022-12-04T09:26:57.200Z,101408.88
2022-12-04T09:29:24.069Z,101409.19
2022-12-04T09:31:50.870Z,101410.41
2022-12-04T09:34:17.631Z,101413.00
2022-12-04T09:36:44.424Z,101407.44
2022-12-04T09:39:11.210Z,101405.53
2022-12-04T09:41:38.360Z,101408.63
2022-12-04T09:44:14.564Z,101403.84
2022-12-04T09:46:51.365Z,101409.53
2022-12-04T09:49:21.749Z,101411.25
2022-12-04T09:51:50.221Z,101418.31
2022-12-04T09:54:19.045Z,101418.31
2022-12-04T09:56:52.024Z,101425.19
2022-12-04T09:59:22.879Z,101421.97
2022-12-04T10:01:51.702Z,101415.91
2022-12-04T10:04:19.394Z,101423.31
2022-12-04T10:06:47.466Z,101426.91
2022-12-04T10:09:21.629Z,101428.00
2022-12-04T10:11:53.471Z,101425.97
2022-12-04T10:14:29.785Z,101414.44
2022-12-04T10:16:56.845Z,101429.25
2022-12-04T10:19:23.899Z,101420.25
2022-12-04T10:21:51.865Z,101417.09
2022-12-04T10:24:21.884Z,101416.22
2022-12-04T10:26:49.507Z,101413.41
2022-12-04T10:29:26.514Z,101408.63
2022-12-04T10:31:55.465Z,101407.78
2022-12-04T10:34:26.224Z,101409.47
2022-12-04T10:36:53.981Z,101407.19
2022-12-04T10:39:33.540Z,101405.53
2022-12-04T10:42:04.936Z,101405.75
2022-12-04T10:44:31.954Z,101400.69
2022-12-04T10:46:59.913Z,101397.25
2022-12-04T10:49:28.604Z,101395.00
2022-12-04T10:51:55.483Z,101398.66
2022-12-04T10:54:22.545Z,101400.84
2022-12-04T10:56:51.276Z,101394.09
2022-12-04T10:59:18.279Z,101405.88
2022-12-04T11:01:45.562Z,101402.50
2022-12-04T11:04:21.609Z,101395.72
2022-12-04T11:06:50.299Z,101395.13
2022-12-04T11:09:22.787Z,101396.78
2022-12-04T11:11:49.984Z,101398.16
2022-12-04T11:14:18.334Z,101406.81
2022-12-04T11:16:48.557Z,101394.16
2022-12-04T11:19:22.866Z,101397.47
2022-12-04T11:21:50.467Z,101396.06
2022-12-04T11:24:21.635Z,101392.06
2022-12-04T11:26:48.994Z,101403.56
2022-12-04T11:29:18.113Z,101409.72
2022-12-04T11:31:53.262Z,101405.47
2022-12-04T11:34:21.829Z,101407.66
2022-12-04T11:36:54.025Z,101404.03
2022-12-04T11:39:25.212Z,101400.91
2022-12-04T11:42:01.633Z,101407.66
2022-12-04T11:44:31.864Z,101412.47
2022-12-04T11:46:59.689Z,101407.66
2022-12-04T11:49:27.969Z,101410.47
2022-12-04T11:52:02.334Z,101412.16
2022-12-04T11:54:38.640Z,101417.47
2022-12-04T11:57:13.500Z,101416.88
2022-12-04T11:59:48.964Z,101418.53
2022-12-04T12:02:26.659Z,101408.66
2022-12-04T12:05:02.665Z,101407.81
2022-12-04T12:07:38.347Z,101406.38
2022-12-04T12:10:05.745Z,101413.38
2022-12-04T12:12:41.644Z,101411.06
2022-12-04T12:15:16.919Z,101408.25
2022-12-04T12:17:47.259Z,101401.50
2022-12-04T12:20:16.987Z,101399.75
2022-12-04T12:22:53.626Z,101402.25
2022-12-04T12:25:20.724Z,101402.81
2022-12-04T12:27:49.144Z,101392.69
2022-12-04T12:30:16.164Z,101397.47
2022-12-04T12:32:43.270Z,101387.91
2022-12-04T12:35:22.683Z,101393.22
2022-12-04T12:37:53.005Z,101384.78
2022-12-04T12:40:26.405Z,101386.44
2022-12-04T12:42:58.591Z,101381.38
2022-12-04T12:45:27.202Z,101375.41
2022-12-04T12:47:56.339Z,101382.72
2022-12-04T12:50:29.751Z,101374.81
2022-12-04T12:53:03.206Z,101373.34
2022-12-04T12:55:33.756Z,101370.25
2022-12-04T12:58:06.825Z,101360.66
2022-12-04T13:00:39.464Z,101361.72
2022-12-04T13:03:16.746Z,101366.50
2022-12-04T13:05:46.511Z,101366.19
2022-12-04T13:08:20.742Z,101367.31
2022-12-04T13:10:49.214Z,101363.31
2022-12-04T13:13:26.400Z,101360.50
2022-12-04T13:15:56.512Z,101362.41
2022-12-04T13:18:27.976Z,101365.53
2022-12-04T13:20:57.103Z,101364.16
2022-12-04T13:23:33.784Z,101362.81
2022-12-04T13:26:10.786Z,101366.72
2022-12-04T13:28:47.105Z,101366.72
2022-12-04T13:31:20.605Z,101371.81
2022-12-04T13:33:50.930Z,101365.38
2022-12-04T13:36:26.245Z,101360.03
2022-12-04T13:39:02.665Z,101371.31
2022-12-04T13:41:31.484Z,101371.31
2022-12-04T13:44:02.928Z,101371.00
2022-12-04T13:46:36.790Z,101372.34
2022-12-04T13:49:13.969Z,101372.94
2022-12-04T13:51:41.957Z,101366.13
2022-12-04T13:54:12.029Z,101367.81
2022-12-04T13:56:41.089Z,101365.00
2022-12-04T13:59:17.805Z,101371.47
2022-12-04T14:01:46.997Z,101365.53
2022-12-04T14:04:23.644Z,101375.63
2022-12-04T14:06:51.490Z,101371.69
2022-12-04T14:09:27.624Z,101378.13
2022-12-04T14:11:58.042Z,101375.31
2022-12-04T14:14:27.145Z,101375.31
2022-12-04T14:16:55.141Z,101377.31
2022-12-04T14:19:28.201Z,101369.69
2022-12-04T14:21:55.450Z,101368.56
2022-12-04T14:24:32.245Z,101367.44
2022-12-04T14:27:15.085Z,101363.78
2022-12-04T14:29:45.224Z,101371.69
2022-12-04T14:32:15.905Z,101359.91
2022-12-04T14:34:43.405Z,101361.03
2022-12-04T14:37:19.015Z,101362.19
2022-12-04T14:39:47.551Z,101375.13
2022-12-04T14:42:15.669Z,101373.16
2022-12-04T14:44:44.544Z,101382.41
2022-12-04T14:47:20.585Z,101375.31
2022-12-04T14:49:57.153Z,101365.44
2022-12-04T14:52:28.685Z,101376.72
2022-12-04T14:55:07.176Z,101386.50
2022-12-04T14:57:43.465Z,101384.53
2022-12-04T15:00:16.445Z,101387.03
2022-12-04T15:02:44.204Z,101383.91
2022-12-04T15:05:13.152Z,101384.44
2022-12-04T15:07:46.690Z,101390.06
2022-12-04T15:10:29.033Z,101388.94
2022-12-04T15:12:55.950Z,101390.91
2022-12-04T15:15:25.851Z,101401.00
2022-12-04T15:18:02.785Z,101397.88
2022-12-04T15:20:38.635Z,101402.16
2022-12-04T15:23:06.369Z,101411.47
2022-12-04T15:25:35.926Z,101407.63
2022-12-04T15:28:06.401Z,101404.50
2022-12-04T15:30:35.015Z,101412.31
2022-12-04T15:33:02.212Z,101416.81
2022-12-04T15:35:30.829Z,101425.25
2022-12-04T15:37:58.467Z,101419.63
2022-12-04T15:40:26.926Z,101421.94
2022-12-04T15:42:54.014Z,101430.06
2022-12-04T15:45:21.123Z,101438.50
2022-12-04T15:47:48.498Z,101433.19
2022-12-04T15:50:15.653Z,101447.28
2022-12-04T15:52:50.818Z,101446.44
2022-12-04T15:55:18.878Z,101447.56
2022-12-04T15:57:51.795Z,101447.03
2022-12-04T16:00:22.964Z,101452.66
2022-12-04T16:02:50.377Z,101448.50
2022-12-04T16:05:28.752Z,101461.22
2022-12-04T16:07:57.053Z,101463.22
2022-12-04T16:10:25.744Z,101471.94
2022-12-04T16:12:54.139Z,101477.03
2022-12-04T16:15:21.063Z,101469.75
2022-12-04T16:17:48.203Z,101476.53
2022-12-04T16:20:15.525Z,101476.31
2022-12-04T16:22:42.836Z,101481.94
2022-12-04T16:25:11.445Z,101482.53
2022-12-04T16:27:38.859Z,101488.78
2022-12-04T16:30:06.495Z,101489.91
2022-12-04T16:32:34.712Z,101491.91
2022-12-04T16:35:02.260Z,101493.34
2022-12-04T16:37:32.206Z,101492.81
2022-12-04T16:39:59.880Z,101494.28
2022-12-04T16:42:28.632Z,101496.25
2022-12-04T16:44:56.537Z,101494.06
2022-12-04T16:47:24.387Z,101493.50
2022-12-04T16:49:52.182Z,101493.00
2022-12-04T16:52:20.052Z,101493.28
2022-12-04T16:54:47.598Z,101493.91
2022-12-04T16:57:14.994Z,101501.78
2022-12-04T16:59:42.946Z,101504.03
2022-12-04T17:02:16.115Z,101499.03
2022-12-04T17:04:43.583Z,101504.94
2022-12-04T17:07:10.560Z,101506.97
2022-12-04T17:09:37.908Z,101499.94
2022-12-04T17:12:04.902Z,101504.22
2022-12-04T17:14:32.468Z,101495.22
2022-12-04T17:16:59.686Z,101506.78
2022-12-04T17:19:26.954Z,101505.72
2022-12-04T17:21:54.391Z,101504.34
2022-12-04T17:24:21.485Z,101501.00
2022-12-04T17:26:48.422Z,101511.19
2022-12-04T17:29:15.488Z,101503.88
2022-12-04T17:31:42.777Z,101508.13
2022-12-04T17:34:09.963Z,101513.22
2022-12-04T17:36:37.174Z,101516.34
2022-12-04T17:39:04.246Z,101514.97
2022-12-04T17:41:31.620Z,101517.84
2022-12-04T17:44:00.061Z,101517.63
2022-12-04T17:46:27.707Z,101512.03
2022-12-04T17:48:56.779Z,101529.53
2022-12-04T17:51:24.719Z,101518.06
2022-12-04T17:53:52.034Z,101523.44
2022-12-04T17:56:20.786Z,101525.16
2022-12-04T17:58:48.530Z,101520.13
2022-12-04T18:01:17.835Z,101525.81
2022-12-04T18:03:49.501Z,101522.47
2022-12-04T18:06:17.989Z,101532.03
2022-12-04T18:08:50.062Z,101534.31
2022-12-04T18:11:19.021Z,101530.63
2022-12-04T18:13:46.140Z,101536.63
2022-12-04T18:16:13.368Z,101525.97
2022-12-04T18:18:40.739Z,101538.91
2022-12-04T18:21:09.996Z,101523.22
2022-12-04T18:23:37.985Z,101531.38
2022-12-04T18:26:05.592Z,101529.19
2022-12-04T18:28:32.920Z,101536.25
2022-12-04T18:31:02.626Z,101525.56
2022-12-04T18:33:31.610Z,101534.94
2022-12-04T18:35:58.703Z,101535.00
2022-12-04T18:38:26.440Z,101531.94
2022-12-04T18:40:54.784Z,101544.31
2022-12-04T18:43:22.234Z,101542.41
2022-12-04T18:45:59.404Z,101541.84
2022-12-04T18:48:28.689Z,101541.59
2022-12-04T18:50:55.621Z,101541.38
2022-12-04T18:53:23.125Z,101547.81
2022-12-04T18:55:50.155Z,101542.78
2022-12-04T18:58:17.211Z,101542.78
2022-12-04T19:00:45.684Z,101548.69
2022-12-04T19:03:12.741Z,101548.38
2022-12-04T19:05:47.504Z,101550.63
2022-12-04T19:08:14.569Z,101557.59
2022-12-04T19:10:41.743Z,101558.66
2022-12-04T19:13:08.722Z,101561.16
2022-12-04T19:15:37.612Z,101567.88
2022-12-04T19:18:04.862Z,101565.31
2022-12-04T19:20:32.811Z,101565.53
2022-12-04T19:22:59.868Z,101574.53
2022-12-04T19:25:26.922Z,101566.34
2022-12-04T19:27:54.003Z,101573.31
2022-12-04T19:30:21.224Z,101565.47
2022-12-04T19:32:50.463Z,101576.94
2022-12-04T19:35:17.602Z,101562.84
2022-12-04T19:37:49.609Z,101569.81
2022-12-04T19:40:19.617Z,101571.75
2022-12-04T19:42:46.740Z,101570.31
2022-12-04T19:45:13.782Z,101566.91
2022-12-04T19:47:40.871Z,101584.00
2022-12-04T19:50:08.153Z,101581.50
2022-12-04T19:52:37.922Z,101586.50
2022-12-04T19:55:05.320Z,101587.59
2022-12-04T19:57:32.381Z,101589.78
2022-12-04T19:59:59.435Z,101587.25
2022-12-04T20:02:26.872Z,101591.13
2022-12-04T20:04:53.934Z,101588.56
2022-12-04T20:07:20.583Z,101588.28
2022-12-04T20:09:51.922Z,101585.69
2022-12-04T20:12:19.581Z,101596.34
2022-12-04T20:14:46.529Z,101597.72
2022-12-04T20:17:13.684Z,101604.72
2022-12-04T20:19:41.091Z,101600.47
2022-12-04T20:22:08.246Z,101599.31
2022-12-04T20:24:35.281Z,101603.53
2022-12-04T20:27:03.764Z,101597.28
2022-12-04T20:29:30.810Z,101608.78
2022-12-04T20:31:58.190Z,101607.34
2022-12-04T20:34:25.342Z,101605.91
2022-12-04T20:36:52.702Z,101607.28
2022-12-04T20:39:20.103Z,101615.13
2022-12-04T20:41:47.991Z,101610.03
2022-12-04T20:44:16.277Z,101619.56
2022-12-04T20:46:43.519Z,101620.41
2022-12-04T20:49:15.820Z,101625.34
2022-12-04T20:51:48.400Z,101627.28
2022-12-04T20:54:18.759Z,101622.50
2022-12-04T20:56:46.521Z,101623.88
2022-12-04T20:59:14.867Z,101626.41
2022-12-04T21:01:42.078Z,101630.63
2022-12-04T21:04:09.572Z,101632.31
2022-12-04T21:06:38.483Z,101630.03
2022-12-04T21:09:06.798Z,101635.66
2022-12-04T21:11:38.282Z,101636.50
2022-12-04T21:14:16.569Z,101635.34
2022-12-04T21:16:44.193Z,101634.22
2022-12-04T21:19:13.180Z,101638.41
2022-12-04T21:21:40.633Z,101636.13
2022-12-04T21:24:08.395Z,101629.06
2022-12-04T21:26:35.502Z,101635.22
2022-12-04T21:29:05.840Z,101638.56
2022-12-04T21:31:32.943Z,101635.97
2022-12-04T21:34:01.091Z,101642.13
2022-12-04T21:36:28.401Z,101642.69
2022-12-04T21:38:55.742Z,101639.03
2022-12-04T21:41:32.881Z,101638.41
2022-12-04T21:44:01.801Z,101640.94
2022-12-04T21:46:28.845Z,101642.91
2022-12-04T21:48:55.753Z,101641.47
2022-12-04T21:51:48.665Z,101643.13
2022-12-04T21:54:09.709Z,101639.81
2022-12-04T21:56:38.939Z,101646.03
2022-12-04T21:59:06.632Z,101635.38
2022-12-04T22:01:34.327Z,101641.63
2022-12-04T22:04:01.620Z,101639.31
2022-12-04T22:06:29.360Z,101653.09
2022-12-04T22:08:56.370Z,101650.00
2022-12-04T22:11:23.338Z,101650.00
2022-12-04T22:13:50.559Z,101646.84
2022-12-04T22:16:18.374Z,101644.28
2022-12-04T22:18:46.140Z,101654.38
2022-12-04T22:21:14.914Z,101651.00
2022-12-04T22:23:42.659Z,101655.50
2022-12-04T22:26:12.074Z,101658.81
2022-12-04T22:28:39.420Z,101661.34
2022-12-04T22:31:07.953Z,101661.84
2022-12-04T22:33:35.531Z,101658.75
2022-12-04T22:36:04.223Z,101655.09
2022-12-04T22:38:31.282Z,101652.81
2022-12-04T22:40:59.010Z,101657.84
2022-12-04T22:43:26.169Z,101652.44
2022-12-04T22:45:53.231Z,101651.00
2022-12-04T22:48:20.291Z,101648.19
2022-12-04T22:50:55.180Z,101651.28
2022-12-04T22:53:22.110Z,101650.44
2022-12-04T22:55:49.019Z,101654.72
2022-12-04T22:58:15.970Z,101657.00
2022-12-04T23:00:42.868Z,101656.16
2022-12-04T23:03:09.824Z,101666.91
2022-12-04T23:05:36.852Z,101668.66
2022-12-04T23:08:04.300Z,101670.31
2022-12-04T23:10:32.193Z,101670.63
2022-12-04T23:12:59.190Z,101674.56
2022-12-04T23:15:26.160Z,101677.41
2022-12-04T23:17:53.190Z,101675.41
2022-12-04T23:20:20.240Z,101673.44
2022-12-04T23:22:48.491Z,101669.16
2022-12-04T23:25:15.578Z,101678.47
2022-12-04T23:27:42.519Z,101668.03
2022-12-04T23:30:09.996Z,101670.56
2022-12-04T23:32:37.091Z,101675.66
2022-12-04T23:35:04.442Z,101672.81
2022-12-04T23:37:33.300Z,101671.69
2022-12-04T23:40:00.575Z,101674.50
2022-12-04T23:42:31.310Z,101668.88
2022-12-04T23:44:58.319Z,101663.53
2022-12-04T23:47:25.341Z,101664.66
2022-12-04T23:49:52.310Z,101667.81
2022-12-04T23:52:19.274Z,101668.66
2022-12-04T23:54:46.948Z,101666.44
2022-12-04T23:57:13.980Z,101660.28
2022-12-04T23:59:41.030Z,101665.91
